sensor_id;sensor_type;location;lat;lon;timestamp;temperature;humidity
2893;DHT22;1456;51.840;12.184;2023-11-19T00:00:40;5.30;99.90
2893;DHT22;1456;51.840;12.184;2023-11-19T00:03:05;5.20;99.90
2893;DHT22;1456;51.840;12.184;2023-11-19T00:05:31;5.20;99.90
2893;DHT22;1456;51.840;12.184;2023-11-19T00:08:00;5.20;99.90
2893;DHT22;1456;51.840;12.184;2023-11-19T00:10:25;5.20;99.90
2893;DHT22;1456;51.840;12.184;2023-11-19T00:12:52;5.30;99.90
2893;DHT22;1456;51.840;12.184;2023-11-19T00:15:17;5.20;99.90
2893;DHT22;1456;51.840;12.184;2023-11-19T00:17:44;5.20;99.90
2893;DHT22;1456;51.840;12.184;2023-11-19T00:20:13;5.10;99.90
2893;DHT22;1456;51.840;12.184;2023-11-19T00:22:39;5.20;99.90
2893;DHT22;1456;51.840;12.184;2023-11-19T00:25:06;5.20;99.90
2893;DHT22;1456;51.840;12.184;2023-11-19T00:27:32;5.20;99.90
2893;DHT22;1456;51.840;12.184;2023-11-19T00:29:58;5.20;99.90
2893;DHT22;1456;51.840;12.184;2023-11-19T00:32:23;5.20;99.90
2893;DHT22;1456;51.840;12.184;2023-11-19T00:34:50;5.30;99.90
2893;DHT22;1456;51.840;12.184;2023-11-19T00:37:16;5.20;99.90
2893;DHT22;1456;51.840;12.184;2023-11-19T00:39:42;5.20;99.90
2893;DHT22;1456;51.840;12.184;2023-11-19T00:42:09;5.20;99.90
2893;DHT22;1456;51.840;12.184;2023-11-19T00:44:35;5.20;99.90
2893;DHT22;1456;51.840;12.184;2023-11-19T00:47:01;5.20;99.90
2893;DHT22;1456;51.840;12.184;2023-11-19T00:49:28;5.20;99.90
2893;DHT22;1456;51.840;12.184;2023-11-19T00:51:54;5.20;99.90
2893;DHT22;1456;51.840;12.184;2023-11-19T00:54:21;5.20;99.90
2893;DHT22;1456;51.840;12.184;2023-11-19T00:56:52;5.20;99.90
2893;DHT22;1456;51.840;12.184;2023-11-19T00:59:17;5.20;99.90
2893;DHT22;1456;51.840;12.184;2023-11-19T01:01:45;5.20;99.90
2893;DHT22;1456;51.840;12.184;2023-11-19T01:04:13;5.20;99.90
2893;DHT22;1456;51.840;12.184;2023-11-19T01:06:39;5.20;99.90
2893;DHT22;1456;51.840;12.184;2023-11-19T01:09:04;5.20;99.90
2893;DHT22;1456;51.840;12.184;2023-11-19T01:11:31;5.20;99.90
2893;DHT22;1456;51.840;12.184;2023-11-19T01:13:57;5.20;99.90
2893;DHT22;1456;51.840;12.184;2023-11-19T01:16:23;5.20;99.90
2893;DHT22;1456;51.840;12.184;2023-11-19T01:18:49;5.20;99.90
2893;DHT22;1456;51.840;12.184;2023-11-19T01:21:15;5.20;99.90
2893;DHT22;1456;51.840;12.184;2023-11-19T01:23:41;5.20;99.90
2893;DHT22;1456;51.840;12.184;2023-11-19T01:26:10;5.30;99.90
2893;DHT22;1456;51.840;12.184;2023-11-19T01:28:36;5.20;99.90
2893;DHT22;1456;51.840;12.184;2023-11-19T01:31:01;5.30;99.90
2893;DHT22;1456;51.840;12.184;2023-11-19T01:33:29;5.20;99.90
2893;DHT22;1456;51.840;12.184;2023-11-19T01:35:56;5.20;99.90
2893;DHT22;1456;51.840;12.184;2023-11-19T01:38:24;5.20;99.90
2893;DHT22;1456;51.840;12.184;2023-11-19T01:40:55;5.20;99.90
2893;DHT22;1456;51.840;12.184;2023-11-19T01:43:34;5.20;99.90
2893;DHT22;1456;51.840;12.184;2023-11-19T01:46:01;5.20;99.90
2893;DHT22;1456;51.840;12.184;2023-11-19T01:48:28;5.20;99.90
2893;DHT22;1456;51.840;12.184;2023-11-19T01:50:54;5.20;99.90
2893;DHT22;1456;51.840;12.184;2023-11-19T01:53:21;5.20;99.90
2893;DHT22;1456;51.840;12.184;2023-11-19T01:55:46;5.30;99.90
2893;DHT22;1456;51.840;12.184;2023-11-19T01:58:12;5.30;99.90
2893;DHT22;1456;51.840;12.184;2023-11-19T02:00:42;5.20;99.90
2893;DHT22;1456;51.840;12.184;2023-11-19T02:03:08;5.30;99.90
2893;DHT22;1456;51.840;12.184;2023-11-19T02:05:35;5.20;99.90
2893;DHT22;1456;51.840;12.184;2023-11-19T02:08:01;5.20;99.90
2893;DHT22;1456;51.840;12.184;2023-11-19T02:10:27;5.20;99.90
2893;DHT22;1456;51.840;12.184;2023-11-19T02:12:53;5.20;99.90
2893;DHT22;1456;51.840;12.184;2023-11-19T02:15:20;5.20;99.90
2893;DHT22;1456;51.840;12.184;2023-11-19T02:17:48;5.20;99.90
2893;DHT22;1456;51.840;12.184;2023-11-19T02:20:13;5.30;99.90
2893;DHT22;1456;51.840;12.184;2023-11-19T02:22:40;5.30;99.90
2893;DHT22;1456;51.840;12.184;2023-11-19T02:25:07;5.30;99.90
2893;DHT22;1456;51.840;12.184;2023-11-19T02:30:19;5.20;99.90
2893;DHT22;1456;51.840;12.184;2023-11-19T02:32:45;5.20;99.90
2893;DHT22;1456;51.840;12.184;2023-11-19T02:35:11;5.20;99.90
2893;DHT22;1456;51.840;12.184;2023-11-19T02:37:38;5.20;99.90
2893;DHT22;1456;51.840;12.184;2023-11-19T02:40:04;5.20;99.90
2893;DHT22;1456;51.840;12.184;2023-11-19T02:42:31;5.20;99.90
2893;DHT22;1456;51.840;12.184;2023-11-19T02:44:56;5.20;99.90
2893;DHT22;1456;51.840;12.184;2023-11-19T02:47:23;5.20;99.90
2893;DHT22;1456;51.840;12.184;2023-11-19T02:49:51;5.30;99.90
2893;DHT22;1456;51.840;12.184;2023-11-19T02:52:18;5.30;99.90
2893;DHT22;1456;51.840;12.184;2023-11-19T02:54:45;5.30;99.90
2893;DHT22;1456;51.840;12.184;2023-11-19T02:57:10;5.30;99.90
2893;DHT22;1456;51.840;12.184;2023-11-19T02:59:38;5.40;99.90
2893;DHT22;1456;51.840;12.184;2023-11-19T03:02:05;5.40;99.90
2893;DHT22;1456;51.840;12.184;2023-11-19T03:04:32;5.30;99.90
2893;DHT22;1456;51.840;12.184;2023-11-19T03:06:58;5.40;99.90
2893;DHT22;1456;51.840;12.184;2023-11-19T03:09:24;5.30;99.90
2893;DHT22;1456;51.840;12.184;2023-11-19T03:11:50;5.40;99.90
2893;DHT22;1456;51.840;12.184;2023-11-19T03:14:15;5.40;99.90
2893;DHT22;1456;51.840;12.184;2023-11-19T03:16:44;5.40;99.90
2893;DHT22;1456;51.840;12.184;2023-11-19T03:19:12;5.40;99.90
2893;DHT22;1456;51.840;12.184;2023-11-19T03:21:38;5.40;99.90
2893;DHT22;1456;51.840;12.184;2023-11-19T03:24:03;5.40;99.90
2893;DHT22;1456;51.840;12.184;2023-11-19T03:26:30;5.40;99.90
2893;DHT22;1456;51.840;12.184;2023-11-19T03:28:55;5.50;99.90
2893;DHT22;1456;51.840;12.184;2023-11-19T03:31:22;5.50;99.90
2893;DHT22;1456;51.840;12.184;2023-11-19T03:33:48;5.50;99.90
2893;DHT22;1456;51.840;12.184;2023-11-19T03:36:13;5.50;99.90
2893;DHT22;1456;51.840;12.184;2023-11-19T03:38:40;5.50;99.90
2893;DHT22;1456;51.840;12.184;2023-11-19T03:41:14;5.50;99.90
2893;DHT22;1456;51.840;12.184;2023-11-19T03:43:41;5.50;99.90
2893;DHT22;1456;51.840;12.184;2023-11-19T03:46:19;5.50;99.90
2893;DHT22;1456;51.840;12.184;2023-11-19T03:48:49;5.50;99.90
2893;DHT22;1456;51.840;12.184;2023-11-19T03:51:15;5.60;99.90
2893;DHT22;1456;51.840;12.184;2023-11-19T03:53:45;5.50;99.90
2893;DHT22;1456;51.840;12.184;2023-11-19T03:56:10;5.50;99.90
2893;DHT22;1456;51.840;12.184;2023-11-19T03:58:37;5.60;99.90
2893;DHT22;1456;51.840;12.184;2023-11-19T04:01:04;5.60;99.90
2893;DHT22;1456;51.840;12.184;2023-11-19T04:03:29;5.60;99.90
2893;DHT22;1456;51.840;12.184;2023-11-19T04:05:56;5.60;99.90
2893;DHT22;1456;51.840;12.184;2023-11-19T04:08:21;5.60;99.90
2893;DHT22;1456;51.840;12.184;2023-11-19T04:10:47;5.70;99.90
2893;DHT22;1456;51.840;12.184;2023-11-19T04:13:12;5.60;99.90
2893;DHT22;1456;51.840;12.184;2023-11-19T04:15:40;5.70;99.90
2893;DHT22;1456;51.840;12.184;2023-11-19T04:18:05;5.70;99.90
2893;DHT22;1456;51.840;12.184;2023-11-19T04:20:32;5.70;99.90
2893;DHT22;1456;51.840;12.184;2023-11-19T04:22:59;5.70;99.90
2893;DHT22;1456;51.840;12.184;2023-11-19T04:25:27;5.70;99.90
2893;DHT22;1456;51.840;12.184;2023-11-19T04:27:52;5.70;99.90
2893;DHT22;1456;51.840;12.184;2023-11-19T04:30:18;5.70;99.90
2893;DHT22;1456;51.840;12.184;2023-11-19T04:32:44;5.70;99.90
2893;DHT22;1456;51.840;12.184;2023-11-19T04:35:10;5.80;99.90
2893;DHT22;1456;51.840;12.184;2023-11-19T04:37:36;5.80;99.90
2893;DHT22;1456;51.840;12.184;2023-11-19T04:40:02;5.80;99.90
2893;DHT22;1456;51.840;12.184;2023-11-19T04:42:27;5.90;99.90
2893;DHT22;1456;51.840;12.184;2023-11-19T04:44:53;5.90;99.90
2893;DHT22;1456;51.840;12.184;2023-11-19T04:47:18;5.90;99.90
2893;DHT22;1456;51.840;12.184;2023-11-19T04:49:45;5.90;99.90
2893;DHT22;1456;51.840;12.184;2023-11-19T04:54:42;5.90;99.90
2893;DHT22;1456;51.840;12.184;2023-11-19T04:57:08;6.00;99.90
2893;DHT22;1456;51.840;12.184;2023-11-19T04:59:37;6.10;99.90
2893;DHT22;1456;51.840;12.184;2023-11-19T05:02:03;6.10;99.90
2893;DHT22;1456;51.840;12.184;2023-11-19T05:04:31;6.10;99.90
2893;DHT22;1456;51.840;12.184;2023-11-19T05:06:56;6.10;99.90
2893;DHT22;1456;51.840;12.184;2023-11-19T05:09:22;6.10;99.90
2893;DHT22;1456;51.840;12.184;2023-11-19T05:11:49;6.20;99.90
2893;DHT22;1456;51.840;12.184;2023-11-19T05:14:14;6.20;99.90
2893;DHT22;1456;51.840;12.184;2023-11-19T05:16:40;6.20;99.90
2893;DHT22;1456;51.840;12.184;2023-11-19T05:19:06;6.20;99.90
2893;DHT22;1456;51.840;12.184;2023-11-19T05:21:32;6.30;99.90
2893;DHT22;1456;51.840;12.184;2023-11-19T05:23:57;6.30;99.90
2893;DHT22;1456;51.840;12.184;2023-11-19T05:26:24;6.30;99.90
2893;DHT22;1456;51.840;12.184;2023-11-19T05:28:50;6.30;99.90
2893;DHT22;1456;51.840;12.184;2023-11-19T05:31:17;6.30;99.90
2893;DHT22;1456;51.840;12.184;2023-11-19T05:33:43;6.40;99.90
2893;DHT22;1456;51.840;12.184;2023-11-19T05:36:10;6.40;99.90
2893;DHT22;1456;51.840;12.184;2023-11-19T05:38:36;6.40;99.90
2893;DHT22;1456;51.840;12.184;2023-11-19T05:41:02;6.50;99.90
2893;DHT22;1456;51.840;12.184;2023-11-19T05:43:28;6.50;99.90
2893;DHT22;1456;51.840;12.184;2023-11-19T05:45:55;6.50;99.90
2893;DHT22;1456;51.840;12.184;2023-11-19T05:48:21;6.60;99.90
2893;DHT22;1456;51.840;12.184;2023-11-19T05:50:47;6.60;99.90
2893;DHT22;1456;51.840;12.184;2023-11-19T05:53:15;6.60;99.90
2893;DHT22;1456;51.840;12.184;2023-11-19T05:55:40;6.60;99.90
2893;DHT22;1456;51.840;12.184;2023-11-19T05:58:14;6.70;99.90
2893;DHT22;1456;51.840;12.184;2023-11-19T06:00:39;6.70;99.90
2893;DHT22;1456;51.840;12.184;2023-11-19T06:03:06;6.70;99.90
2893;DHT22;1456;51.840;12.184;2023-11-19T06:05:32;6.70;99.90
2893;DHT22;1456;51.840;12.184;2023-11-19T06:07:57;6.80;99.90
2893;DHT22;1456;51.840;12.184;2023-11-19T06:10:23;6.80;99.90
2893;DHT22;1456;51.840;12.184;2023-11-19T06:12:54;6.90;99.90
2893;DHT22;1456;51.840;12.184;2023-11-19T06:15:22;6.90;99.90
2893;DHT22;1456;51.840;12.184;2023-11-19T06:17:48;7.00;99.90
2893;DHT22;1456;51.840;12.184;2023-11-19T06:20:13;7.10;99.90
2893;DHT22;1456;51.840;12.184;2023-11-19T06:22:39;7.20;99.90
2893;DHT22;1456;51.840;12.184;2023-11-19T06:25:07;7.20;99.90
2893;DHT22;1456;51.840;12.184;2023-11-19T06:27:33;7.30;99.90
2893;DHT22;1456;51.840;12.184;2023-11-19T06:29:59;7.30;99.90
2893;DHT22;1456;51.840;12.184;2023-11-19T06:32:25;7.30;99.90
2893;DHT22;1456;51.840;12.184;2023-11-19T06:34:50;7.30;99.90
2893;DHT22;1456;51.840;12.184;2023-11-19T06:37:15;7.30;99.90
2893;DHT22;1456;51.840;12.184;2023-11-19T06:39:42;7.30;99.90
2893;DHT22;1456;51.840;12.184;2023-11-19T06:42:08;7.30;99.90
2893;DHT22;1456;51.840;12.184;2023-11-19T06:44:34;7.30;99.90
2893;DHT22;1456;51.840;12.184;2023-11-19T06:46:59;7.30;99.90
2893;DHT22;1456;51.840;12.184;2023-11-19T06:49:25;7.30;99.90
2893;DHT22;1456;51.840;12.184;2023-11-19T06:51:51;7.40;99.90
2893;DHT22;1456;51.840;12.184;2023-11-19T06:54:16;7.30;99.90
2893;DHT22;1456;51.840;12.184;2023-11-19T06:56:45;7.30;99.90
2893;DHT22;1456;51.840;12.184;2023-11-19T06:59:10;7.40;99.90
2893;DHT22;1456;51.840;12.184;2023-11-19T07:01:37;7.40;99.90
2893;DHT22;1456;51.840;12.184;2023-11-19T07:04:04;7.40;99.90
2893;DHT22;1456;51.840;12.184;2023-11-19T07:06:37;7.40;99.90
2893;DHT22;1456;51.840;12.184;2023-11-19T07:09:02;7.40;99.90
2893;DHT22;1456;51.840;12.184;2023-11-19T07:11:39;7.30;99.90
2893;DHT22;1456;51.840;12.184;2023-11-19T07:14:05;7.30;99.90
2893;DHT22;1456;51.840;12.184;2023-11-19T07:16:32;7.30;99.90
2893;DHT22;1456;51.840;12.184;2023-11-19T07:19:00;7.30;99.90
2893;DHT22;1456;51.840;12.184;2023-11-19T07:21:26;7.30;99.90
2893;DHT22;1456;51.840;12.184;2023-11-19T07:23:54;7.40;99.90
2893;DHT22;1456;51.840;12.184;2023-11-19T07:26:19;7.50;99.90
2893;DHT22;1456;51.840;12.184;2023-11-19T07:28:45;7.50;99.90
2893;DHT22;1456;51.840;12.184;2023-11-19T07:31:11;7.60;99.90
2893;DHT22;1456;51.840;12.184;2023-11-19T07:33:37;7.80;99.90
2893;DHT22;1456;51.840;12.184;2023-11-19T07:36:05;7.80;99.90
2893;DHT22;1456;51.840;12.184;2023-11-19T07:38:31;7.80;99.90
2893;DHT22;1456;51.840;12.184;2023-11-19T07:40:56;7.90;99.90
2893;DHT22;1456;51.840;12.184;2023-11-19T07:43:22;7.90;99.90
2893;DHT22;1456;51.840;12.184;2023-11-19T07:45:47;7.90;99.90
2893;DHT22;1456;51.840;12.184;2023-11-19T07:48:14;8.10;99.90
2893;DHT22;1456;51.840;12.184;2023-11-19T07:50:40;8.20;99.90
2893;DHT22;1456;51.840;12.184;2023-11-19T07:53:06;8.30;99.90
2893;DHT22;1456;51.840;12.184;2023-11-19T07:55:33;8.30;99.90
2893;DHT22;1456;51.840;12.184;2023-11-19T07:57:59;8.40;99.90
2893;DHT22;1456;51.840;12.184;2023-11-19T08:00:25;8.40;99.90
2893;DHT22;1456;51.840;12.184;2023-11-19T08:02:50;8.40;99.90
2893;DHT22;1456;51.840;12.184;2023-11-19T08:05:16;8.40;99.90
2893;DHT22;1456;51.840;12.184;2023-11-19T08:07:41;8.40;99.90
2893;DHT22;1456;51.840;12.184;2023-11-19T08:10:07;8.40;99.90
2893;DHT22;1456;51.840;12.184;2023-11-19T08:12:35;8.50;99.90
2893;DHT22;1456;51.840;12.184;2023-11-19T08:15:02;8.50;99.90
2893;DHT22;1456;51.840;12.184;2023-11-19T08:17:31;8.60;99.90
2893;DHT22;1456;51.840;12.184;2023-11-19T08:19:57;8.60;99.90
2893;DHT22;1456;51.840;12.184;2023-11-19T08:22:23;8.70;99.90
2893;DHT22;1456;51.840;12.184;2023-11-19T08:24:49;8.70;99.90
2893;DHT22;1456;51.840;12.184;2023-11-19T08:27:15;8.80;99.90
2893;DHT22;1456;51.840;12.184;2023-11-19T08:29:40;8.90;99.90
2893;DHT22;1456;51.840;12.184;2023-11-19T08:32:06;8.90;99.90
2893;DHT22;1456;51.840;12.184;2023-11-19T08:34:33;9.00;99.90
2893;DHT22;1456;51.840;12.184;2023-11-19T08:36:59;9.10;99.90
2893;DHT22;1456;51.840;12.184;2023-11-19T08:39:24;9.10;99.90
2893;DHT22;1456;51.840;12.184;2023-11-19T08:41:50;9.20;99.90
2893;DHT22;1456;51.840;12.184;2023-11-19T08:44:16;9.30;99.90
2893;DHT22;1456;51.840;12.184;2023-11-19T08:46:48;9.40;99.90
2893;DHT22;1456;51.840;12.184;2023-11-19T08:49:14;9.60;99.90
2893;DHT22;1456;51.840;12.184;2023-11-19T08:51:41;9.70;99.90
2893;DHT22;1456;51.840;12.184;2023-11-19T08:54:07;9.90;99.90
2893;DHT22;1456;51.840;12.184;2023-11-19T08:56:33;10.10;99.90
2893;DHT22;1456;51.840;12.184;2023-11-19T08:59:00;10.20;99.90
2893;DHT22;1456;51.840;12.184;2023-11-19T09:01:28;10.20;99.90
2893;DHT22;1456;51.840;12.184;2023-11-19T09:03:54;10.30;99.90
2893;DHT22;1456;51.840;12.184;2023-11-19T09:06:19;10.40;99.90
2893;DHT22;1456;51.840;12.184;2023-11-19T09:08:45;10.50;99.90
2893;DHT22;1456;51.840;12.184;2023-11-19T09:11:10;10.70;99.90
2893;DHT22;1456;51.840;12.184;2023-11-19T09:13:37;10.90;99.90
2893;DHT22;1456;51.840;12.184;2023-11-19T09:18:31;11.10;99.90
2893;DHT22;1456;51.840;12.184;2023-11-19T09:20:59;11.00;99.90
2893;DHT22;1456;51.840;12.184;2023-11-19T09:23:26;11.00;99.90
2893;DHT22;1456;51.840;12.184;2023-11-19T09:25:53;11.00;99.90
2893;DHT22;1456;51.840;12.184;2023-11-19T09:28:18;11.00;99.90
2893;DHT22;1456;51.840;12.184;2023-11-19T09:30:45;11.00;99.90
2893;DHT22;1456;51.840;12.184;2023-11-19T09:33:12;11.00;99.90
2893;DHT22;1456;51.840;12.184;2023-11-19T09:35:39;11.00;99.90
2893;DHT22;1456;51.840;12.184;2023-11-19T09:38:06;11.00;99.90
2893;DHT22;1456;51.840;12.184;2023-11-19T09:40:32;11.10;99.90
2893;DHT22;1456;51.840;12.184;2023-11-19T09:42:59;11.10;99.90
2893;DHT22;1456;51.840;12.184;2023-11-19T09:45:30;11.20;99.90
2893;DHT22;1456;51.840;12.184;2023-11-19T09:47:57;11.30;99.90
2893;DHT22;1456;51.840;12.184;2023-11-19T09:50:25;11.40;99.90
2893;DHT22;1456;51.840;12.184;2023-11-19T09:52:53;11.50;99.90
2893;DHT22;1456;51.840;12.184;2023-11-19T09:55:19;11.50;99.90
2893;DHT22;1456;51.840;12.184;2023-11-19T09:57:45;11.60;99.90
2893;DHT22;1456;51.840;12.184;2023-11-19T10:00:12;11.60;99.90
2893;DHT22;1456;51.840;12.184;2023-11-19T10:02:41;11.50;99.90
2893;DHT22;1456;51.840;12.184;2023-11-19T10:05:11;11.60;99.90
2893;DHT22;1456;51.840;12.184;2023-11-19T10:07:39;11.70;99.90
2893;DHT22;1456;51.840;12.184;2023-11-19T10:10:06;11.70;99.90
2893;DHT22;1456;51.840;12.184;2023-11-19T10:12:32;11.80;99.90
2893;DHT22;1456;51.840;12.184;2023-11-19T10:14:58;11.90;99.90
2893;DHT22;1456;51.840;12.184;2023-11-19T10:17:33;11.90;99.90
2893;DHT22;1456;51.840;12.184;2023-11-19T10:20:00;11.90;99.90
2893;DHT22;1456;51.840;12.184;2023-11-19T10:22:27;11.90;99.90
2893;DHT22;1456;51.840;12.184;2023-11-19T10:24:53;11.90;99.90
2893;DHT22;1456;51.840;12.184;2023-11-19T10:27:19;12.00;99.90
2893;DHT22;1456;51.840;12.184;2023-11-19T10:29:46;12.00;99.90
2893;DHT22;1456;51.840;12.184;2023-11-19T10:32:12;11.90;99.90
2893;DHT22;1456;51.840;12.184;2023-11-19T10:34:38;12.00;99.90
2893;DHT22;1456;51.840;12.184;2023-11-19T10:37:05;12.30;99.90
2893;DHT22;1456;51.840;12.184;2023-11-19T10:39:51;12.60;99.90
2893;DHT22;1456;51.840;12.184;2023-11-19T10:42:18;12.70;99.90
2893;DHT22;1456;51.840;12.184;2023-11-19T10:44:44;12.80;99.90
2893;DHT22;1456;51.840;12.184;2023-11-19T10:47:10;12.90;99.90
2893;DHT22;1456;51.840;12.184;2023-11-19T10:49:35;13.00;99.90
2893;DHT22;1456;51.840;12.184;2023-11-19T10:52:01;12.80;99.90
2893;DHT22;1456;51.840;12.184;2023-11-19T10:54:28;13.00;99.90
2893;DHT22;1456;51.840;12.184;2023-11-19T10:57:00;12.90;99.90
2893;DHT22;1456;51.840;12.184;2023-11-19T10:59:28;12.90;99.90
2893;DHT22;1456;51.840;12.184;2023-11-19T11:01:56;12.80;99.90
2893;DHT22;1456;51.840;12.184;2023-11-19T11:04:22;12.80;99.90
2893;DHT22;1456;51.840;12.184;2023-11-19T11:06:48;12.90;99.90
2893;DHT22;1456;51.840;12.184;2023-11-19T11:09:15;13.10;99.90
2893;DHT22;1456;51.840;12.184;2023-11-19T11:11:43;13.30;99.90
2893;DHT22;1456;51.840;12.184;2023-11-19T11:14:12;13.20;99.90
2893;DHT22;1456;51.840;12.184;2023-11-19T11:16:39;13.10;99.90
2893;DHT22;1456;51.840;12.184;2023-11-19T11:19:07;13.10;99.90
2893;DHT22;1456;51.840;12.184;2023-11-19T11:21:34;13.30;99.90
2893;DHT22;1456;51.840;12.184;2023-11-19T11:36:57;13.60;99.90
2893;DHT22;1456;51.840;12.184;2023-11-19T11:39:24;13.50;99.90
2893;DHT22;1456;51.840;12.184;2023-11-19T11:48:04;13.60;99.90
2893;DHT22;1456;51.840;12.184;2023-11-19T11:50:15;13.50;99.90
2893;DHT22;1456;51.840;12.184;2023-11-19T11:55:33;13.40;99.90
2893;DHT22;1456;51.840;12.184;2023-11-19T11:58:00;13.40;99.90
2893;DHT22;1456;51.840;12.184;2023-11-19T12:00:39;13.50;99.90
2893;DHT22;1456;51.840;12.184;2023-11-19T12:03:05;13.60;99.90
2893;DHT22;1456;51.840;12.184;2023-11-19T12:05:32;13.90;99.90
2893;DHT22;1456;51.840;12.184;2023-11-19T12:08:07;14.30;99.90
2893;DHT22;1456;51.840;12.184;2023-11-19T12:13:10;14.90;99.90
2893;DHT22;1456;51.840;12.184;2023-11-19T12:18:21;15.10;99.90
2893;DHT22;1456;51.840;12.184;2023-11-19T12:20:48;15.00;99.90
2893;DHT22;1456;51.840;12.184;2023-11-19T12:23:15;14.90;99.90
2893;DHT22;1456;51.840;12.184;2023-11-19T12:25:41;14.60;99.90
2893;DHT22;1456;51.840;12.184;2023-11-19T12:28:11;15.10;99.90
2893;DHT22;1456;51.840;12.184;2023-11-19T12:30:37;15.80;99.90
2893;DHT22;1456;51.840;12.184;2023-11-19T12:33:07;16.10;99.90
2893;DHT22;1456;51.840;12.184;2023-11-19T12:35:33;16.30;99.90
2893;DHT22;1456;51.840;12.184;2023-11-19T12:37:58;16.90;99.90
2893;DHT22;1456;51.840;12.184;2023-11-19T12:40:24;17.00;99.90
2893;DHT22;1456;51.840;12.184;2023-11-19T12:42:53;16.60;99.90
2893;DHT22;1456;51.840;12.184;2023-11-19T12:45:19;16.20;99.90
2893;DHT22;1456;51.840;12.184;2023-11-19T12:47:46;16.30;99.90
2893;DHT22;1456;51.840;12.184;2023-11-19T12:50:15;16.20;99.90
2893;DHT22;1456;51.840;12.184;2023-11-19T12:55:29;15.60;99.90
2893;DHT22;1456;51.840;12.184;2023-11-19T12:57:55;15.90;99.90
2893;DHT22;1456;51.840;12.184;2023-11-19T13:00:22;15.60;99.90
2893;DHT22;1456;51.840;12.184;2023-11-19T13:02:52;15.20;99.90
2893;DHT22;1456;51.840;12.184;2023-11-19T13:05:31;15.10;99.90
2893;DHT22;1456;51.840;12.184;2023-11-19T13:08:08;14.70;99.90
2893;DHT22;1456;51.840;12.184;2023-11-19T13:10:34;14.40;99.90
2893;DHT22;1456;51.840;12.184;2023-11-19T13:13:15;14.20;99.90
2893;DHT22;1456;51.840;12.184;2023-11-19T13:15:41;14.10;99.90
2893;DHT22;1456;51.840;12.184;2023-11-19T13:18:09;13.90;99.90
2893;DHT22;1456;51.840;12.184;2023-11-19T13:20:36;13.80;99.90
2893;DHT22;1456;51.840;12.184;2023-11-19T13:23:04;13.80;99.90
2893;DHT22;1456;51.840;12.184;2023-11-19T13:25:30;13.80;99.90
2893;DHT22;1456;51.840;12.184;2023-11-19T13:27:56;13.90;99.90
2893;DHT22;1456;51.840;12.184;2023-11-19T13:30:22;13.90;99.90
2893;DHT22;1456;51.840;12.184;2023-11-19T13:32:48;13.80;99.90
2893;DHT22;1456;51.840;12.184;2023-11-19T13:35:14;13.80;99.90
2893;DHT22;1456;51.840;12.184;2023-11-19T13:37:40;13.80;99.90
2893;DHT22;1456;51.840;12.184;2023-11-19T13:40:08;13.70;99.90
2893;DHT22;1456;51.840;12.184;2023-11-19T13:42:41;13.70;99.90
2893;DHT22;1456;51.840;12.184;2023-11-19T13:45:13;13.70;99.90
2893;DHT22;1456;51.840;12.184;2023-11-19T13:47:39;13.70;99.90
2893;DHT22;1456;51.840;12.184;2023-11-19T13:50:09;13.90;99.90
2893;DHT22;1456;51.840;12.184;2023-11-19T13:52:39;14.50;99.90
2893;DHT22;1456;51.840;12.184;2023-11-19T13:55:06;14.60;99.90
2893;DHT22;1456;51.840;12.184;2023-11-19T13:57:32;14.80;99.90
2893;DHT22;1456;51.840;12.184;2023-11-19T13:59:57;14.50;99.90
2893;DHT22;1456;51.840;12.184;2023-11-19T14:02:23;14.30;99.90
2893;DHT22;1456;51.840;12.184;2023-11-19T14:04:48;14.30;99.90
2893;DHT22;1456;51.840;12.184;2023-11-19T14:07:14;14.20;99.90
2893;DHT22;1456;51.840;12.184;2023-11-19T14:09:41;14.10;99.90
2893;DHT22;1456;51.840;12.184;2023-11-19T14:12:08;14.00;99.90
2893;DHT22;1456;51.840;12.184;2023-11-19T14:14:35;14.00;99.90
2893;DHT22;1456;51.840;12.184;2023-11-19T14:17:03;13.90;99.90
2893;DHT22;1456;51.840;12.184;2023-11-19T14:19:30;13.70;99.90
2893;DHT22;1456;51.840;12.184;2023-11-19T14:21:55;13.50;99.90
2893;DHT22;1456;51.840;12.184;2023-11-19T14:24:21;13.30;99.90
2893;DHT22;1456;51.840;12.184;2023-11-19T14:26:47;13.20;99.90
2893;DHT22;1456;51.840;12.184;2023-11-19T14:29:14;13.00;99.90
2893;DHT22;1456;51.840;12.184;2023-11-19T14:31:39;12.80;99.90
2893;DHT22;1456;51.840;12.184;2023-11-19T14:34:05;12.70;99.90
2893;DHT22;1456;51.840;12.184;2023-11-19T14:36:30;12.80;99.90
2893;DHT22;1456;51.840;12.184;2023-11-19T14:38:56;12.90;99.90
2893;DHT22;1456;51.840;12.184;2023-11-19T14:41:24;12.90;99.90
2893;DHT22;1456;51.840;12.184;2023-11-19T14:43:50;12.80;99.90
2893;DHT22;1456;51.840;12.184;2023-11-19T14:46:16;12.60;99.90
2893;DHT22;1456;51.840;12.184;2023-11-19T14:48:41;12.40;99.90
2893;DHT22;1456;51.840;12.184;2023-11-19T14:51:07;12.40;99.90
2893;DHT22;1456;51.840;12.184;2023-11-19T14:53:33;12.40;99.90
2893;DHT22;1456;51.840;12.184;2023-11-19T14:56:01;12.30;99.90
2893;DHT22;1456;51.840;12.184;2023-11-19T14:58:27;12.20;99.90
2893;DHT22;1456;51.840;12.184;2023-11-19T15:00:53;12.00;99.90
2893;DHT22;1456;51.840;12.184;2023-11-19T15:03:18;11.90;99.90
2893;DHT22;1456;51.840;12.184;2023-11-19T15:05:47;11.90;99.90
2893;DHT22;1456;51.840;12.184;2023-11-19T15:08:13;11.90;99.90
2893;DHT22;1456;51.840;12.184;2023-11-19T15:10:41;12.00;99.90
2893;DHT22;1456;51.840;12.184;2023-11-19T15:13:08;12.00;99.90
2893;DHT22;1456;51.840;12.184;2023-11-19T15:15:34;12.00;99.90
2893;DHT22;1456;51.840;12.184;2023-11-19T15:18:01;11.90;99.90
2893;DHT22;1456;51.840;12.184;2023-11-19T15:20:26;11.90;99.90
2893;DHT22;1456;51.840;12.184;2023-11-19T15:22:56;11.90;99.90
2893;DHT22;1456;51.840;12.184;2023-11-19T15:25:21;11.90;99.90
2893;DHT22;1456;51.840;12.184;2023-11-19T15:27:49;11.90;99.90
2893;DHT22;1456;51.840;12.184;2023-11-19T15:30:15;11.90;99.90
2893;DHT22;1456;51.840;12.184;2023-11-19T15:32:43;11.80;99.90
2893;DHT22;1456;51.840;12.184;2023-11-19T15:35:09;11.80;99.90
2893;DHT22;1456;51.840;12.184;2023-11-19T15:37:35;11.80;99.90
2893;DHT22;1456;51.840;12.184;2023-11-19T15:40:01;11.70;99.90
2893;DHT22;1456;51.840;12.184;2023-11-19T15:42:29;11.70;99.90
2893;DHT22;1456;51.840;12.184;2023-11-19T15:44:54;11.80;99.90
2893;DHT22;1456;51.840;12.184;2023-11-19T15:47:20;11.80;99.90
2893;DHT22;1456;51.840;12.184;2023-11-19T15:49:46;11.80;99.90
2893;DHT22;1456;51.840;12.184;2023-11-19T15:52:14;11.80;99.90
2893;DHT22;1456;51.840;12.184;2023-11-19T15:54:40;11.80;99.90
2893;DHT22;1456;51.840;12.184;2023-11-19T15:57:06;11.80;99.90
2893;DHT22;1456;51.840;12.184;2023-11-19T15:59:31;11.80;99.90
2893;DHT22;1456;51.840;12.184;2023-11-19T16:01:57;11.80;99.90
2893;DHT22;1456;51.840;12.184;2023-11-19T16:04:22;11.90;99.90
2893;DHT22;1456;51.840;12.184;2023-11-19T16:06:48;11.90;99.90
2893;DHT22;1456;51.840;12.184;2023-11-19T16:09:14;11.90;99.90
2893;DHT22;1456;51.840;12.184;2023-11-19T16:11:40;11.90;99.90
2893;DHT22;1456;51.840;12.184;2023-11-19T16:14:09;11.90;99.90
2893;DHT22;1456;51.840;12.184;2023-11-19T16:16:35;11.90;99.90
2893;DHT22;1456;51.840;12.184;2023-11-19T16:19:00;11.90;99.90
2893;DHT22;1456;51.840;12.184;2023-11-19T16:21:26;11.80;99.90
2893;DHT22;1456;51.840;12.184;2023-11-19T16:23:51;11.80;99.90
2893;DHT22;1456;51.840;12.184;2023-11-19T16:26:17;11.60;99.90
2893;DHT22;1456;51.840;12.184;2023-11-19T16:28:42;11.50;99.90